Time;durP1;ratioP1;P1;durP2;ratioP2;P2;SDS_P1;SDS_P2;PMS_P1;PMS_P2;Temp;Humidity;BMP_temperature;BMP_pressure;BME280_temperature;BME280_humidity;BME280_pressure;Samples;Min_cycle;Max_cycle;Signal;HPM_P1;HPM_P2
2022/06/03 00:21:08;;;;;;;;;3.00;3.00;;;;;22.10;32.14;100763.72;4862041;29;45688;-83
2022/06/03 00:24:12;;;;;;;;;4.00;4.00;;;;;21.84;32.38;100736.56;4865157;28;45684;-84
2022/06/03 00:34:03;;;;;;;;;4.50;4.50;;;;;22.05;32.46;100767.94;4853106;29;45925;-83
2022/06/03 00:36:37;;;;;;;;;5.00;5.00;;;;;22.03;32.70;100770.78;4870425;28;45733;-84
2022/06/03 00:39:09;;;;;;;;;4.75;4.00;;;;;22.02;32.70;100766.47;4918650;28;47029;-83
2022/06/03 00:42:07;;;;;;;;;4.00;4.00;;;;;22.01;32.61;100764.81;4918341;28;45919;-84
2022/06/03 00:45:10;;;;;;;;;4.25;3.25;;;;;21.99;33.16;100766.81;4917938;28;45767;-83
2022/06/03 00:55:13;;;;;;;;;4.00;4.00;;;;;21.91;33.10;100774.03;4935347;28;46029;-80
2022/06/03 01:02:12;;;;;;;;;;;;;;;;;;;;;
2022/06/03 01:08:21;;;;;;;;;4.25;4.00;;;;;21.82;33.24;100775.09;4954382;28;46059;-85
2022/06/03 01:11:07;;;;;;;;;4.00;4.00;;;;;21.79;33.40;100773.63;4954393;28;45755;-83
2022/06/03 01:13:40;;;;;;;;;4.00;4.00;;;;;21.70;33.27;100750.69;4953813;28;45586;-83
2022/06/03 01:16:36;;;;;;;;;4.00;4.00;;;;;21.75;33.36;100758.97;4953799;28;45623;-83
2022/06/03 01:20:18;;;;;;;;;4.00;3.00;;;;;21.70;33.31;100756.03;4948892;28;45636;-83
2022/06/03 01:26:47;;;;;;;;;4.00;4.00;;;;;21.65;33.98;100753.03;4864634;29;45918;-83
2022/06/03 01:29:30;;;;;;;;;3.75;3.25;;;;;21.51;33.68;100743.13;4973469;28;45627;-82
2022/06/03 01:42:14;;;;;;;;;4.00;3.00;;;;;21.44;33.74;100753.66;4915484;28;45684;-83
2022/06/03 01:48:13;;;;;;;;;3.00;3.00;;;;;21.40;34.18;100748.88;4915261;28;45741;-83
2022/06/03 01:50:51;;;;;;;;;3.25;2.25;;;;;21.34;34.07;100737.91;4915475;28;45817;-82
2022/06/03 01:53:45;;;;;;;;;3.75;3.75;;;;;21.30;34.09;100736.59;4914868;28;46800;-81
2022/06/03 01:56:55;;;;;;;;;3.00;3.00;;;;;21.24;34.21;100734.63;4891962;28;47421;-82
2022/06/03 01:59:57;;;;;;;;;3.25;3.25;;;;;21.17;34.21;100730.16;4914922;28;45777;-82
2022/06/03 02:02:55;;;;;;;;;3.50;3.50;;;;;21.13;34.48;100731.50;4919249;28;45761;-81
2022/06/03 02:09:20;;;;;;;;;4.25;4.25;;;;;21.06;34.64;100726.00;4895137;29;46521;-84
2022/06/03 02:11:58;;;;;;;;;4.00;4.00;;;;;21.01;34.78;100711.56;4903817;28;45743;-82
2022/06/03 02:18:19;;;;;;;;;4.00;4.00;;;;;20.94;35.26;100698.13;4953157;28;45634;-82
2022/06/03 02:21:18;;;;;;;;;6.00;5.00;;;;;20.97;35.17;100710.25;4953812;28;46350;-82
2022/06/03 02:24:10;;;;;;;;;4.25;4.25;;;;;20.91;35.05;100701.13;4953367;28;45759;-83
2022/06/03 02:27:18;;;;;;;;;4.00;4.00;;;;;20.87;35.28;100699.81;4954216;28;45828;-83
2022/06/03 02:30:27;;;;;;;;;3.25;3.25;;;;;20.81;35.38;100693.34;4954407;28;46475;-80
2022/06/03 02:33:07;;;;;;;;;3.00;3.00;;;;;20.77;35.40;100684.03;4952908;28;47215;-83
2022/06/03 02:36:05;;;;;;;;;4.00;4.00;;;;;20.74;35.23;100686.19;4937706;28;45680;-80
2022/06/03 02:42:28;;;;;;;;;4.00;3.50;;;;;20.60;35.67;100671.78;4916713;28;46708;-84
2022/06/03 02:48:42;;;;;;;;;5.00;4.25;;;;;20.60;35.73;100687.78;4952792;28;45542;-82
2022/06/03 02:51:20;;;;;;;;;4.25;4.00;;;;;20.53;35.89;100678.78;4953100;28;45679;-81
2022/06/03 02:54:03;;;;;;;;;4.50;4.00;;;;;20.55;35.83;100676.81;4937029;28;48486;-84
2022/06/03 02:57:05;;;;;;;;;3.25;2.50;;;;;20.51;36.07;100673.63;4953396;28;45627;-82
2022/06/03 03:00:27;;;;;;;;;5.25;4.00;;;;;20.48;35.94;100673.16;4953620;28;45814;-83
2022/06/03 03:03:20;;;;;;;;;4.25;4.00;;;;;20.44;36.09;100666.53;4952825;28;45783;-83
2022/06/03 03:06:41;;;;;;;;;;;;;;;;;;;;;
2022/06/03 03:12:51;;;;;;;;;3.50;3.50;;;;;20.18;36.31;100637.47;4917202;28;45758;-83
2022/06/03 03:16:03;;;;;;;;;4.25;4.25;;;;;20.30;36.42;100667.19;4919430;28;45594;-84
2022/06/03 03:18:46;;;;;;;;;3.75;3.75;;;;;20.29;36.36;100668.22;4934638;28;46422;-84
2022/06/03 03:21:30;;;;;;;;;5.25;4.25;;;;;20.27;36.46;100671.03;4978018;28;45930;-83
2022/06/03 03:24:19;;;;;;;;;5.00;4.25;;;;;20.19;36.58;100657.72;4976164;28;45789;-82
2022/06/03 03:27:28;;;;;;;;;4.25;3.50;;;;;20.17;36.62;100666.91;4977268;28;45780;-82
2022/06/03 03:34:19;;;;;;;;;6.50;6.00;;;;;20.19;36.67;100683.53;4973912;28;45725;-84
2022/06/03 03:37:20;;;;;;;;;5.00;4.00;;;;;20.06;36.60;100654.78;4975509;28;45826;-83
2022/06/03 03:40:34;;;;;;;;;4.00;4.00;;;;;20.17;37.13;100664.25;4976208;28;45900;-84
2022/06/03 03:43:34;;;;;;;;;4.50;4.25;;;;;20.09;36.95;100652.59;4958434;28;47035;-82
2022/06/03 03:46:37;;;;;;;;;6.00;5.75;;;;;20.10;37.33;100669.41;4975155;28;45993;-83
2022/06/03 03:49:24;;;;;;;;;5.75;5.00;;;;;20.06;37.22;100658.28;4994856;28;45718;-82
2022/06/03 03:52:38;;;;;;;;;5.75;5.00;;;;;20.05;36.93;100663.75;5038802;28;45560;-81
2022/06/03 03:55:38;;;;;;;;;5.00;4.00;;;;;20.02;37.31;100664.94;4994428;28;46266;-82
2022/06/03 03:58:20;;;;;;;;;4.75;4.50;;;;;19.98;37.61;100652.94;4994540;28;46261;-81
2022/06/03 04:04:12;;;;;;;;;3.75;3.25;;;;;19.93;37.40;100657.13;4994824;28;45768;-80
2022/06/03 04:06:53;;;;;;;;;6.00;5.00;;;;;19.96;37.73;100670.94;4995069;28;45756;-82
2022/06/03 04:09:40;;;;;;;;;5.00;5.00;;;;;19.96;37.31;100670.09;4994143;28;46158;-82
2022/06/03 04:12:42;;;;;;;;;4.00;4.00;;;;;19.93;37.78;100668.59;4994150;28;45594;-81
2022/06/03 04:15:41;;;;;;;;;6.00;4.75;;;;;19.88;38.09;100665.59;4994382;28;45746;-83
2022/06/03 04:18:37;;;;;;;;;5.00;4.25;;;;;19.82;38.28;100655.63;4994282;28;46348;-82
2022/06/03 04:28:40;;;;;;;;;5.00;5.00;;;;;19.64;38.39;100657.66;4959173;28;45499;-81
2022/06/03 04:34:45;;;;;;;;;7.00;6.00;;;;;19.57;38.76;100657.47;4897007;28;45804;-81
2022/06/03 04:37:33;;;;;;;;;6.00;5.50;;;;;19.54;38.94;100662.31;4897612;29;45788;-80
2022/06/03 04:40:35;;;;;;;;;5.25;5.00;;;;;19.51;38.60;100667.94;4803890;29;45695;-81
2022/06/03 04:43:35;;;;;;;;;5.25;4.25;;;;;19.50;38.92;100672.41;4804022;29;45850;-82
2022/06/03 04:49:24;;;;;;;;;5.00;4.25;;;;;19.52;38.93;100672.25;4822292;29;45847;-81
2022/06/03 04:52:14;;;;;;;;;4.00;4.00;;;;;19.52;39.22;100666.94;4822366;29;45881;-83
2022/06/03 04:55:04;;;;;;;;;5.00;4.25;;;;;19.53;39.24;100671.25;4822414;29;46560;-81
2022/06/03 04:58:07;;;;;;;;;5.25;5.00;;;;;19.53;39.22;100677.41;4806882;29;47088;-83
2022/06/03 05:04:55;;;;;;;;;5.50;4.25;;;;;19.50;39.12;100690.19;4897940;28;45770;-82
2022/06/03 05:07:48;;;;;;;;;6.00;5.50;;;;;19.48;39.04;100682.41;4881936;29;46839;-83
2022/06/03 05:11:03;;;;;;;;;5.50;5.00;;;;;19.51;39.38;100681.22;4877877;29;46549;-82
2022/06/03 05:14:03;;;;;;;;;6.00;6.00;;;;;19.52;39.67;100670.44;4877558;29;45767;-83
2022/06/03 05:23:47;;;;;;;;;5.50;5.50;;;;;19.52;39.20;100664.28;4896684;29;45690;-83
2022/06/03 05:26:34;;;;;;;;;8.50;6.00;;;;;19.52;39.69;100659.81;4896621;29;45721;-83
2022/06/03 05:29:27;;;;;;;;;5.25;4.00;;;;;19.60;39.63;100677.56;4896243;29;45751;-82
2022/06/03 05:32:14;;;;;;;;;6.00;6.00;;;;;19.63;39.53;100666.63;4895913;29;46721;-83
2022/06/03 05:35:27;;;;;;;;;7.25;6.00;;;;;19.70;39.60;100664.97;4896139;29;46074;-80
2022/06/03 05:38:15;;;;;;;;;5.00;4.00;;;;;19.70;39.60;100654.34;4910708;28;45715;-83
2022/06/03 05:41:07;;;;;;;;;8.50;7.00;;;;;19.78;39.70;100659.63;4935091;28;45601;-80
2022/06/03 05:43:45;;;;;;;;;7.00;6.25;;;;;19.80;39.62;100657.66;4934316;28;45723;-84
2022/06/03 05:46:18;;;;;;;;;5.50;5.50;;;;;19.84;39.71;100656.31;4934167;28;46050;-81
2022/06/03 05:48:46;;;;;;;;;8.00;6.75;;;;;19.80;39.90;100647.00;4934595;28;45831;-85
2022/06/03 05:51:50;;;;;;;;;5.00;5.00;;;;;19.89;40.00;100653.13;4935545;28;45753;-84
2022/06/03 05:54:44;;;;;;;;;6.25;6.25;;;;;19.93;40.14;100654.47;4933889;28;48852;-81
2022/06/03 05:57:15;;;;;;;;;7.75;7.00;;;;;19.88;39.90;100638.16;4934544;28;46201;-83
2022/06/03 06:00:02;;;;;;;;;7.00;6.75;;;;;19.98;39.72;100650.28;5052469;28;45613;-81
2022/06/03 06:02:30;;;;;;;;;7.00;7.00;;;;;20.03;40.22;100663.06;5054325;28;45692;-83
2022/06/03 06:05:05;;;;;;;;;7.00;7.00;;;;;20.06;40.21;100654.78;5054321;28;46579;-82
2022/06/03 06:07:45;;;;;;;;;5.25;5.25;;;;;20.08;40.20;100650.13;5054553;28;46419;-83
2022/06/03 06:10:18;;;;;;;;;7.00;7.00;;;;;20.07;39.99;100649.31;5054542;28;45774;-83
2022/06/03 06:13:29;;;;;;;;;6.00;6.00;;;;;20.09;40.37;100649.09;5055220;28;45582;-82
2022/06/03 06:19:26;;;;;;;;;6.50;6.00;;;;;20.16;40.31;100660.75;4972235;28;46086;-79
2022/06/03 06:22:21;;;;;;;;;7.25;7.25;;;;;20.19;40.27;100659.59;4972381;28;45818;-83
2022/06/03 06:25:23;;;;;;;;;6.75;6.00;;;;;20.21;40.08;100657.56;4972824;28;45625;-81
2022/06/03 06:27:59;;;;;;;;;8.75;7.75;;;;;20.09;40.40;100639.31;4988731;28;46905;-79
2022/06/03 06:31:03;;;;;;;;;8.00;7.50;;;;;20.25;40.54;100648.25;4972758;28;45615;-80
2022/06/03 06:37:30;;;;;;;;;8.75;8.25;;;;;20.30;40.73;100654.72;4948785;28;45676;-77
2022/06/03 06:40:14;;;;;;;;;6.25;6.00;;;;;20.32;40.62;100651.91;4952451;28;48236;-80
2022/06/03 06:42:54;;;;;;;;;8.25;8.25;;;;;20.33;40.70;100646.44;4955514;28;46553;-81
2022/06/03 06:45:36;;;;;;;;;8.00;7.00;;;;;20.34;40.60;100637.44;4955162;28;45663;-83
2022/06/03 06:51:41;;;;;;;;;5.75;5.75;;;;;20.45;40.88;100646.91;4961864;28;45659;-79
2022/06/03 06:54:31;;;;;;;;;3.50;3.50;;;;;20.43;40.92;100641.75;5057322;28;46027;-81
2022/06/03 06:57:07;;;;;;;;;8.00;7.75;;;;;20.52;40.77;100647.84;5055544;28;45527;-81
2022/06/03 06:59:41;;;;;;;;;8.00;8.00;;;;;20.53;40.80;100629.06;5055978;28;45585;-80
2022/06/03 07:02:13;;;;;;;;;10.00;9.00;;;;;20.59;40.57;100637.34;5037179;28;47757;-79
2022/06/03 07:04:45;;;;;;;;;7.75;6.75;;;;;20.46;40.92;100616.59;5055895;28;46116;-80
2022/06/03 07:07:33;;;;;;;;;8.75;8.00;;;;;20.59;40.87;100634.69;5056364;28;45804;-80
2022/06/03 07:10:05;;;;;;;;;8.50;7.50;;;;;20.62;40.81;100639.69;5055780;28;45690;-79
2022/06/03 07:12:50;;;;;;;;;9.00;8.50;;;;;20.65;40.68;100634.84;5056492;28;46743;-80
2022/06/03 07:15:25;;;;;;;;;9.00;8.25;;;;;20.73;40.89;100639.31;5055426;28;45650;-77
2022/06/03 07:20:45;;;;;;;;;7.50;7.50;;;;;20.81;40.95;100637.41;5056054;28;45680;-76
2022/06/03 07:23:16;;;;;;;;;9.25;7.50;;;;;20.86;40.76;100637.72;5055990;28;46706;-80
2022/06/03 07:25:56;;;;;;;;;10.00;8.75;;;;;20.93;41.16;100637.84;5037672;28;46844;-78
2022/06/03 07:28:42;;;;;;;;;10.00;8.75;;;;;20.97;40.78;100627.66;5056041;28;45669;-79
2022/06/03 07:31:19;;;;;;;;;9.75;8.25;;;;;20.99;40.98;100631.00;5037695;28;46011;-81
2022/06/03 07:34:00;;;;;;;;;7.75;7.75;;;;;21.00;41.24;100632.66;5055671;28;46879;-78
2022/06/03 07:36:40;;;;;;;;;7.75;7.75;;;;;20.99;40.98;100633.66;5055265;28;45692;-79
2022/06/03 07:39:19;;;;;;;;;7.75;7.75;;;;;21.06;41.14;100639.91;5055799;28;45517;-80
2022/06/03 07:42:02;;;;;;;;;9.00;7.00;;;;;21.10;41.35;100652.75;5055508;28;45628;-79
2022/06/03 07:44:44;;;;;;;;;7.00;5.50;;;;;21.08;40.76;100652.06;5055620;28;45847;-79
2022/06/03 07:50:42;;;;;;;;;8.75;8.00;;;;;21.27;41.11;100664.13;5055064;28;45678;-81
2022/06/03 07:53:19;;;;;;;;;10.25;9.00;;;;;21.31;41.11;100660.97;5055644;28;45527;-79
2022/06/03 07:55:51;;;;;;;;;9.75;9.00;;;;;21.36;41.08;100655.09;5037061;28;48436;-78
2022/06/03 07:58:18;;;;;;;;;8.25;8.25;;;;;21.44;41.52;100659.53;5055713;28;47086;-78
2022/06/03 08:00:46;;;;;;;;;8.00;8.00;;;;;21.49;41.78;100668.66;5055453;28;45697;-79
2022/06/03 08:12:25;;;;;;;;;9.25;9.25;;;;;21.73;41.56;100648.97;5054843;28;45839;-79
2022/06/03 08:14:51;;;;;;;;;9.00;9.00;;;;;21.77;41.67;100651.09;5053741;28;45597;-78
2022/06/03 08:17:18;;;;;;;;;10.25;9.00;;;;;21.84;41.69;100645.03;5055386;28;46981;-78
2022/06/03 08:23:05;;;;;;;;;10.00;10.00;;;;;22.03;41.92;100656.03;5054866;28;45699;-78
2022/06/03 08:25:38;;;;;;;;;8.50;8.00;;;;;22.09;41.95;100644.63;5055761;28;45510;-83
2022/06/03 08:28:07;;;;;;;;;8.25;8.25;;;;;22.13;41.49;100645.13;5055452;28;45679;-82
2022/06/03 08:30:32;;;;;;;;;7.25;7.00;;;;;22.20;42.02;100643.34;5054422;28;46512;-78
2022/06/03 08:33:06;;;;;;;;;10.50;10.00;;;;;22.24;43.14;100647.31;5055219;28;45506;-79
2022/06/03 08:35:36;;;;;;;;;11.00;10.00;;;;;22.22;43.66;100635.16;5036363;28;45555;-79
2022/06/03 08:38:03;;;;;;;;;11.00;10.00;;;;;22.19;42.90;100617.66;5055299;28;46809;-79
2022/06/03 08:40:57;;;;;;;;;10.75;10.00;;;;;22.27;42.91;100627.44;5036378;28;47407;-79
2022/06/03 08:43:33;;;;;;;;;9.50;9.00;;;;;22.28;44.07;100629.09;5054409;28;45610;-79
2022/06/03 08:46:14;;;;;;;;;11.25;11.25;;;;;22.33;43.96;100630.22;5054916;28;45691;-79
2022/06/03 08:48:45;;;;;;;;;11.50;10.50;;;;;22.36;43.57;100629.81;5055200;28;46534;-79
2022/06/03 08:51:24;;;;;;;;;7.25;6.00;;;;;22.38;44.40;100624.31;5054644;28;46187;-79
2022/06/03 08:54:10;;;;;;;;;10.50;10.25;;;;;22.39;42.61;100624.13;5054098;28;45759;-79
2022/06/03 08:56:40;;;;;;;;;10.25;9.50;;;;;22.33;43.11;100608.00;5054330;28;45757;-79
2022/06/03 08:59:14;;;;;;;;;13.25;12.25;;;;;22.35;43.27;100614.00;5055026;28;46585;-78
2022/06/03 09:02:08;;;;;;;;;11.25;11.25;;;;;22.33;43.59;100613.34;5054386;28;45574;-79
2022/06/03 09:04:51;;;;;;;;;11.75;10.50;;;;;22.42;42.88;100620.25;5054142;28;45832;-78
2022/06/03 09:07:38;;;;;;;;;11.00;11.00;;;;;22.44;43.42;100616.38;5054505;28;45606;-84
2022/06/03 09:10:11;;;;;;;;;10.50;10.25;;;;;22.44;43.21;100611.03;5040485;28;46205;-83
2022/06/03 09:13:00;;;;;;;;;11.00;10.50;;;;;22.47;43.20;100616.00;5036862;28;48637;-83
2022/06/03 09:15:33;;;;;;;;;11.25;11.00;;;;;22.48;43.37;100612.31;5056007;28;45550;-83
2022/06/03 09:21:25;;;;;;;;;8.75;8.75;;;;;22.57;42.50;100621.06;4994605;28;45982;-83
2022/06/03 09:24:11;;;;;;;;;10.00;9.00;;;;;22.57;43.18;100623.72;4993562;28;45570;-86
2022/06/03 09:26:40;;;;;;;;;11.00;11.00;;;;;22.60;42.49;100615.34;4992240;28;45574;-84
2022/06/03 09:29:10;;;;;;;;;12.00;11.25;;;;;22.68;43.01;100615.22;4993332;28;45770;-85
2022/06/03 09:31:37;;;;;;;;;13.00;10.75;;;;;22.76;43.00;100625.03;4991887;28;47504;-80
2022/06/03 09:37:30;;;;;;;;;10.75;9.25;;;;;22.88;42.66;100640.41;4986980;28;45908;-84
2022/06/03 09:39:58;;;;;;;;;12.50;11.00;;;;;22.92;42.66;100640.84;4993890;28;45826;-83
2022/06/03 09:42:26;;;;;;;;;12.00;11.00;;;;;23.00;43.25;100664.75;4993073;28;47271;-80
2022/06/03 09:44:53;;;;;;;;;10.50;10.50;;;;;23.17;43.01;100662.69;4992040;28;46042;-83
2022/06/03 09:47:22;;;;;;;;;11.25;10.75;;;;;23.21;43.29;100643.41;4992254;28;45860;-81
2022/06/03 09:53:10;;;;;;;;;11.00;10.00;;;;;23.41;43.13;100673.88;4991686;28;45714;-81
2022/06/03 09:55:43;;;;;;;;;10.75;10.50;;;;;23.52;43.37;100658.34;4991926;28;46199;-84
2022/06/03 09:58:17;;;;;;;;;10.75;10.50;;;;;23.60;42.92;100664.38;5043696;28;45754;-83
2022/06/03 10:00:47;;;;;;;;;11.00;9.75;;;;;23.67;42.76;100670.63;5054734;28;45750;-79
2022/06/03 10:03:14;;;;;;;;;11.50;11.25;;;;;23.72;42.78;100662.84;5054651;28;46521;-80
2022/06/03 10:14:29;;;;;;;;;10.25;9.75;;;;;24.02;43.30;100644.75;5052568;28;46106;-80
2022/06/03 10:16:55;;;;;;;;;10.50;9.75;;;;;24.11;43.20;100648.94;5053611;28;46256;-80
2022/06/03 10:19:21;;;;;;;;;10.25;9.50;;;;;24.09;43.53;100639.44;5035316;28;45666;-80
2022/06/03 10:21:54;;;;;;;;;10.25;10.00;;;;;24.21;43.60;100640.59;5053027;28;45736;-80
2022/06/03 10:24:34;;;;;;;;;11.25;10.50;;;;;24.22;42.79;100627.00;5053286;28;45773;-78
2022/06/03 10:27:06;;;;;;;;;11.00;11.00;;;;;24.33;43.53;100643.53;5034740;28;47947;-79
2022/06/03 10:29:45;;;;;;;;;12.00;11.00;;;;;24.34;43.28;100631.81;5053533;28;45730;-79
2022/06/03 10:32:12;;;;;;;;;10.25;10.00;;;;;24.44;43.13;100643.81;5053620;28;45621;-79
2022/06/03 10:34:41;;;;;;;;;12.75;10.75;;;;;24.46;43.52;100639.06;5053147;28;45581;-80
2022/06/03 10:37:10;;;;;;;;;11.00;10.00;;;;;24.54;43.04;100643.44;5044550;28;45988;-79
2022/06/03 10:39:36;;;;;;;;;13.00;10.00;;;;;24.55;43.34;100632.53;5033143;28;45526;-79
2022/06/03 10:42:02;;;;;;;;;12.25;11.50;;;;;24.67;43.49;100646.16;5032902;28;45767;-79
2022/06/03 10:44:33;;;;;;;;;11.00;11.00;;;;;24.67;43.54;100627.41;5033177;28;46637;-78
2022/06/03 10:47:05;;;;;;;;;10.25;9.25;;;;;24.80;43.84;100640.88;5031962;28;45608;-80
2022/06/03 10:49:38;;;;;;;;;11.00;11.00;;;;;24.80;43.53;100629.31;5015239;28;45578;-79
2022/06/03 11:03:23;;;;;;;;;12.25;11.25;;;;;25.10;43.89;100635.25;5033091;28;45705;-80
2022/06/03 11:05:49;;;;;;;;;13.50;13.00;;;;;25.14;43.68;100639.16;5032659;28;45635;-79
2022/06/03 11:08:14;;;;;;;;;13.00;12.50;;;;;25.21;43.71;100645.38;5032951;28;46473;-79
2022/06/03 11:10:55;;;;;;;;;14.50;13.25;;;;;25.20;43.53;100646.41;5032999;28;45611;-79
2022/06/03 11:13:32;;;;;;;;;10.00;10.00;;;;;25.33;43.63;100665.19;5032889;28;45530;-78
2022/06/03 11:16:21;;;;;;;;;14.00;13.50;;;;;25.37;44.08;100680.66;5032713;28;46643;-79
2022/06/03 11:18:47;;;;;;;;;14.00;14.00;;;;;25.38;44.34;100678.81;5014360;28;46752;-79
2022/06/03 11:21:19;;;;;;;;;11.50;11.00;;;;;25.37;44.00;100674.50;5032088;28;45621;-79
2022/06/03 11:23:45;;;;;;;;;15.00;14.25;;;;;25.41;43.94;100683.78;5032419;28;45593;-80
2022/06/03 11:26:11;;;;;;;;;13.75;13.50;;;;;25.39;43.94;100678.63;5034188;28;46657;-79
2022/06/03 11:28:51;;;;;;;;;14.75;12.00;;;;;25.37;43.78;100682.53;5036586;28;46024;-79
2022/06/03 11:31:23;;;;;;;;;11.50;10.75;;;;;25.35;43.88;100680.06;5036257;28;45582;-79
2022/06/03 11:34:01;;;;;;;;;11.25;11.00;;;;;25.36;43.98;100681.72;5036619;28;45788;-79
2022/06/03 11:36:35;;;;;;;;;14.00;12.25;;;;;25.30;44.43;100674.47;5039039;28;46492;-79
2022/06/03 11:39:25;;;;;;;;;11.50;11.50;;;;;25.34;44.37;100690.97;5056365;28;46675;-79
2022/06/03 11:42:04;;;;;;;;;11.00;10.75;;;;;25.23;44.36;100672.81;5056338;28;45678;-79
2022/06/03 11:44:39;;;;;;;;;10.00;10.00;;;;;25.30;44.48;100687.91;5056292;28;45708;-79
2022/06/03 11:47:41;;;;;;;;;10.00;10.00;;;;;25.28;44.30;100684.56;5056313;28;45784;-79
2022/06/03 11:50:09;;;;;;;;;9.00;8.50;;;;;25.28;44.89;100697.16;5008817;28;46074;-79
2022/06/03 11:52:35;;;;;;;;;9.00;9.00;;;;;25.26;44.54;100693.88;5013822;28;45606;-80
2022/06/03 11:55:01;;;;;;;;;7.00;7.00;;;;;25.20;44.78;100689.31;5014034;28;45657;-79
2022/06/03 11:57:28;;;;;;;;;8.00;7.25;;;;;25.15;44.89;100689.91;5013785;28;45671;-79
2022/06/03 12:00:05;;;;;;;;;12.00;9.75;;;;;25.15;45.18;100687.25;5013782;28;46044;-79
2022/06/03 12:03:09;;;;;;;;;8.25;8.00;;;;;25.12;45.25;100689.47;5013959;28;45574;-79
2022/06/03 12:09:11;;;;;;;;;8.25;8.25;;;;;25.08;45.38;100689.06;4973918;28;46037;-79
2022/06/03 12:14:31;;;;;;;;;10.00;10.00;;;;;25.02;45.78;100697.91;4973891;28;45703;-78
2022/06/03 12:16:58;;;;;;;;;10.00;9.25;;;;;25.00;46.28;100697.28;4974332;28;45779;-79
2022/06/03 12:19:37;;;;;;;;;11.00;9.00;;;;;24.96;46.26;100696.84;4974165;28;45812;-79
2022/06/03 12:25:43;;;;;;;;;8.50;8.50;;;;;24.83;48.06;100699.44;4979691;28;45683;-78
2022/06/03 12:28:22;;;;;;;;;8.00;7.00;;;;;24.79;48.09;100708.06;4996838;28;45617;-79
2022/06/03 12:30:55;;;;;;;;;9.00;9.00;;;;;24.70;49.07;100691.34;5013531;28;45661;-79
2022/06/03 12:34:05;;;;;;;;;8.25;8.25;;;;;24.61;49.40;100690.69;5013173;28;45960;-77
2022/06/03 12:36:51;;;;;;;;;8.00;7.75;;;;;24.59;49.36;100705.31;5006507;28;45681;-77
2022/06/03 12:39:20;;;;;;;;;13.25;12.50;;;;;24.53;49.31;100700.72;5029870;28;45713;-77
2022/06/03 12:41:46;;;;;;;;;8.50;7.00;;;;;24.47;50.01;100693.47;5055507;28;45503;-79
2022/06/03 12:44:34;;;;;;;;;9.00;7.00;;;;;24.43;49.95;100694.91;5055224;28;45943;-78
2022/06/03 12:47:18;;;;;;;;;9.25;8.75;;;;;24.38;50.65;100687.47;5037019;28;45667;-78
2022/06/03 12:49:43;;;;;;;;;7.50;7.50;;;;;24.36;50.62;100694.03;5055457;28;45561;-79
2022/06/03 12:52:33;;;;;;;;;7.25;6.50;;;;;24.33;51.63;100692.59;5055014;28;45519;-79
2022/06/03 12:55:04;;;;;;;;;8.50;7.50;;;;;24.31;51.23;100683.06;5036480;28;48504;-79
2022/06/03 12:57:57;;;;;;;;;7.75;7.25;;;;;24.30;51.17;100686.78;5055220;28;45764;-78
2022/06/03 13:00:34;;;;;;;;;8.75;7.75;;;;;24.23;51.97;100676.03;5036666;28;45540;-78
2022/06/03 13:03:04;;;;;;;;;9.00;8.00;;;;;24.26;51.81;100683.66;5054766;28;45518;-79
2022/06/03 13:05:42;;;;;;;;;12.00;11.00;;;;;24.17;51.30;100663.41;5054933;28;46282;-80
2022/06/03 13:08:26;;;;;;;;;8.25;7.25;;;;;24.24;51.45;100670.47;5055027;28;45664;-79
2022/06/03 13:11:09;;;;;;;;;9.00;8.00;;;;;24.22;51.71;100663.66;5036632;28;45468;-80
2022/06/03 13:13:41;;;;;;;;;8.00;7.50;;;;;24.19;52.19;100667.56;5054738;28;46552;-79
2022/06/03 13:16:37;;;;;;;;;8.00;7.75;;;;;24.21;52.23;100672.72;5054603;28;45669;-79
2022/06/03 13:19:12;;;;;;;;;8.00;8.00;;;;;24.20;52.08;100671.06;5054915;28;45578;-79
2022/06/03 13:25:14;;;;;;;;;11.50;10.00;;;;;24.11;52.23;100681.06;5054305;28;45535;-79
2022/06/03 13:27:40;;;;;;;;;7.00;6.75;;;;;24.08;52.04;100683.28;5054784;28;46340;-78
2022/06/03 13:30:15;;;;;;;;;7.00;7.00;;;;;24.03;52.08;100685.72;5054711;28;45577;-79
2022/06/03 13:32:52;;;;;;;;;8.00;7.00;;;;;24.00;51.91;100684.28;5055017;28;45601;-79
2022/06/03 13:35:18;;;;;;;;;7.50;7.50;;;;;23.98;52.25;100680.13;5054379;28;46523;-80
2022/06/03 13:44:47;;;;;;;;;7.75;7.75;;;;;23.90;52.42;100669.59;5008843;28;45545;-79
2022/06/03 13:47:26;;;;;;;;;8.25;7.25;;;;;23.87;53.12;100669.97;4995121;28;48363;-79
2022/06/03 13:49:57;;;;;;;;;8.75;8.50;;;;;23.81;53.09;100663.53;5011649;28;45945;-78
2022/06/03 13:52:28;;;;;;;;;8.50;7.50;;;;;23.75;53.35;100654.44;5011920;28;45714;-78
2022/06/03 13:55:00;;;;;;;;;6.50;6.25;;;;;23.69;54.36;100649.88;5012092;28;45639;-79
2022/06/03 13:57:29;;;;;;;;;8.50;8.00;;;;;23.64;54.35;100654.97;5011982;28;45784;-80
2022/06/03 14:00:17;;;;;;;;;8.75;8.75;;;;;23.56;54.71;100646.25;5011931;28;45850;-79
2022/06/03 14:02:45;;;;;;;;;8.75;8.00;;;;;23.49;54.63;100627.44;5012013;28;45684;-80
2022/06/03 14:05:14;;;;;;;;;8.00;8.00;;;;;23.41;55.58;100628.41;5012326;28;45552;-79
2022/06/03 14:07:44;;;;;;;;;5.25;5.25;;;;;23.40;54.40;100634.75;5011858;28;46860;-79
2022/06/03 14:10:22;;;;;;;;;9.00;8.00;;;;;23.36;54.44;100633.50;5012019;28;46418;-80
2022/06/03 14:13:10;;;;;;;;;7.00;7.00;;;;;23.37;55.32;100640.47;5011786;28;45798;-80
2022/06/03 14:15:59;;;;;;;;;6.75;6.00;;;;;23.38;55.03;100641.31;5012051;28;45682;-80
2022/06/03 14:18:52;;;;;;;;;5.25;5.25;;;;;23.38;54.60;100642.13;5011678;28;45673;-79
2022/06/03 14:21:21;;;;;;;;;6.00;6.00;;;;;23.40;54.42;100642.78;5050085;28;46537;-79
2022/06/03 14:23:50;;;;;;;;;7.00;7.00;;;;;23.38;54.79;100642.13;5053911;28;45553;-79
2022/06/03 14:26:30;;;;;;;;;5.50;5.00;;;;;23.39;54.17;100638.44;5054072;28;45479;-80
2022/06/03 14:29:00;;;;;;;;;5.25;5.00;;;;;23.50;53.85;100644.34;5053800;28;46563;-79
2022/06/03 14:31:38;;;;;;;;;6.75;6.75;;;;;23.58;54.17;100636.19;5053481;28;45877;-80
2022/06/03 14:34:26;;;;;;;;;6.50;6.25;;;;;23.62;54.21;100642.81;5053972;28;45684;-79
2022/06/03 14:40:19;;;;;;;;;6.00;6.00;;;;;23.70;54.58;100635.44;5053419;28;45674;-78
2022/06/03 14:42:44;;;;;;;;;8.50;7.75;;;;;23.75;54.08;100648.28;5053473;28;46402;-79
2022/06/03 14:45:14;;;;;;;;;9.25;8.00;;;;;23.75;55.11;100646.41;5053556;28;45527;-80
2022/06/03 14:47:52;;;;;;;;;8.00;7.25;;;;;23.77;54.83;100647.03;5053818;28;45651;-79
2022/06/03 14:50:22;;;;;;;;;8.00;8.00;;;;;23.79;54.70;100652.22;5053371;28;45831;-80
2022/06/03 14:56:22;;;;;;;;;12.00;11.00;;;;;23.86;54.69;100637.00;5053141;28;45685;-80
2022/06/03 14:58:51;;;;;;;;;13.00;10.25;;;;;23.88;55.13;100637.66;5053706;28;45546;-79
2022/06/03 15:01:41;;;;;;;;;11.00;10.00;;;;;23.86;55.13;100620.94;5054578;28;45916;-79
2022/06/03 15:04:29;;;;;;;;;9.25;9.25;;;;;23.84;55.49;100626.53;5038337;28;46388;-79
2022/06/03 15:07:03;;;;;;;;;9.75;9.75;;;;;23.81;54.76;100618.03;5056201;28;45803;-79
2022/06/03 15:09:48;;;;;;;;;10.50;10.50;;;;;23.80;55.28;100632.47;5056932;28;45758;-79
2022/06/03 15:12:22;;;;;;;;;8.00;8.00;;;;;23.78;55.36;100634.50;5056895;28;46380;-79
2022/06/03 15:14:49;;;;;;;;;8.50;8.25;;;;;23.79;54.39;100652.22;5056589;28;45941;-78
2022/06/03 15:17:22;;;;;;;;;7.75;7.00;;;;;23.73;54.37;100642.28;5056875;28;45751;-79
2022/06/03 15:19:53;;;;;;;;;7.00;7.00;;;;;23.78;54.28;100651.38;5056858;28;45593;-78
2022/06/03 15:22:31;;;;;;;;;8.75;7.00;;;;;23.75;54.07;100651.75;5056481;28;45668;-79
2022/06/03 15:25:19;;;;;;;;;9.50;8.25;;;;;23.81;54.42;100666.22;5056768;28;46045;-79
2022/06/03 15:27:53;;;;;;;;;6.75;6.00;;;;;23.78;53.90;100664.75;5056640;28;45637;-79
2022/06/03 15:30:19;;;;;;;;;6.50;6.50;;;;;23.81;54.13;100668.88;5056731;28;45633;-79
2022/06/03 15:32:44;;;;;;;;;7.25;6.25;;;;;23.75;54.07;100662.44;5056424;28;46917;-79
2022/06/03 15:35:15;;;;;;;;;6.00;6.00;;;;;23.79;54.33;100666.41;5056381;28;46020;-78
2022/06/03 15:37:41;;;;;;;;;7.00;6.75;;;;;23.83;53.78;100674.88;5056321;28;45534;-80
2022/06/03 15:40:07;;;;;;;;;7.25;6.00;;;;;23.79;53.99;100668.28;5056386;28;45672;-80
2022/06/03 15:42:33;;;;;;;;;7.25;7.25;;;;;23.83;54.01;100669.53;5056271;28;45644;-78